createdAt,value
2019-01-12T00:01:46.713Z,6.20
2019-01-12T00:04:28.453Z,6.10
2019-01-12T00:07:09.999Z,6.10
2019-01-12T00:09:51.860Z,6.10
2019-01-12T00:12:33.840Z,6.10
2019-01-12T00:15:15.916Z,6.10
2019-01-12T00:17:55.624Z,6.10
2019-01-12T00:20:43.642Z,6.10
2019-01-12T00:23:31.594Z,6.10
2019-01-12T00:26:19.630Z,6.00
2019-01-12T00:29:09.291Z,6.10
2019-01-12T00:31:57.222Z,6.10
2019-01-12T00:34:45.174Z,6.10
2019-01-12T00:37:52.579Z,6.10
2019-01-12T00:40:40.631Z,6.10
2019-01-12T00:43:28.628Z,6.10
2019-01-12T00:46:16.662Z,6.10
2019-01-12T00:49:04.623Z,6.00
2019-01-12T00:51:46.385Z,6.00
2019-01-12T00:54:28.367Z,6.00
2019-01-12T00:57:10.193Z,6.00
2019-01-12T00:59:51.430Z,6.00
2019-01-12T01:02:33.424Z,6.00
2019-01-12T01:05:14.890Z,6.00
2019-01-12T01:07:56.903Z,6.00
2019-01-12T01:10:38.859Z,6.00
2019-01-12T01:13:20.309Z,5.90
2019-01-12T01:16:01.738Z,5.90
2019-01-12T01:18:43.682Z,5.90
2019-01-12T01:21:25.659Z,5.90
2019-01-12T01:24:06.730Z,5.90
2019-01-12T01:26:48.187Z,5.90
2019-01-12T01:29:29.563Z,5.80
2019-01-12T01:32:10.784Z,5.80
2019-01-12T01:34:52.402Z,5.80
2019-01-12T01:37:34.202Z,5.90
2019-01-12T01:40:15.397Z,5.90
2019-01-12T01:42:57.574Z,5.90
2019-01-12T01:45:38.986Z,5.90
2019-01-12T01:48:20.716Z,5.90
2019-01-12T01:51:02.462Z,5.90
2019-01-12T01:53:43.855Z,5.90
2019-01-12T01:59:19.610Z,5.90
2019-01-12T02:02:07.636Z,5.90
2019-01-12T02:04:55.931Z,5.90
2019-01-12T02:07:44.031Z,5.90
2019-01-12T02:10:32.002Z,5.80
2019-01-12T02:13:21.574Z,5.80
2019-01-12T02:16:28.956Z,5.80
2019-01-12T02:19:17.031Z,5.80
2019-01-12T02:22:05.338Z,5.80
2019-01-12T02:24:59.791Z,5.80
2019-01-12T02:28:02.458Z,5.80
2019-01-12T02:30:50.405Z,5.80
2019-01-12T02:33:57.820Z,5.80
2019-01-12T02:36:45.843Z,5.80
2019-01-12T02:39:27.602Z,5.80
2019-01-12T02:42:09.599Z,5.80
2019-01-12T02:44:51.322Z,5.70
2019-01-12T02:47:33.104Z,5.70
2019-01-12T02:50:14.988Z,5.70
2019-01-12T02:55:44.576Z,5.70
2019-01-12T02:58:25.772Z,5.70
2019-01-12T03:01:07.103Z,5.70
2019-01-12T03:03:48.667Z,5.70
2019-01-12T03:06:30.641Z,5.70
2019-01-12T03:09:12.323Z,5.70
2019-01-12T03:11:40.963Z,5.70
2019-01-12T03:14:28.899Z,5.70
2019-01-12T03:17:18.507Z,5.70
2019-01-12T03:20:06.512Z,5.70
2019-01-12T03:22:54.482Z,5.70
2019-01-12T03:25:42.415Z,5.70
2019-01-12T03:28:49.824Z,5.70
2019-01-12T03:31:37.840Z,5.70
2019-01-12T03:34:26.082Z,5.70
2019-01-12T03:37:05.783Z,5.70
2019-01-12T03:39:53.875Z,5.70
2019-01-12T03:42:41.830Z,5.70
2019-01-12T03:45:29.755Z,5.70
2019-01-12T03:48:37.163Z,5.70
2019-01-12T03:51:19.021Z,5.70
2019-01-12T03:54:00.188Z,5.70
2019-01-12T03:56:42.186Z,5.70
2019-01-12T03:59:23.368Z,5.70
2019-01-12T04:02:05.187Z,5.60
2019-01-12T04:04:47.135Z,5.70
2019-01-12T04:07:28.875Z,5.60
2019-01-12T04:10:10.899Z,5.60
2019-01-12T04:12:52.830Z,5.60
2019-01-12T04:15:34.928Z,5.60
2019-01-12T04:18:14.512Z,5.60
2019-01-12T04:21:02.435Z,5.60
2019-01-12T04:24:09.847Z,5.60
2019-01-12T04:27:17.319Z,5.60
2019-01-12T04:30:05.349Z,5.60
2019-01-12T04:33:12.738Z,5.60
2019-01-12T04:36:00.703Z,5.60
2019-01-12T04:38:42.054Z,5.70
2019-01-12T04:41:23.476Z,5.70
2019-01-12T04:44:05.469Z,5.70
2019-01-12T04:46:47.378Z,5.70
2019-01-12T04:49:31.502Z,5.70
2019-01-12T04:52:12.984Z,5.70
2019-01-12T04:54:54.131Z,5.70
2019-01-12T04:57:35.423Z,5.70
2019-01-12T05:00:17.253Z,5.70
2019-01-12T05:02:58.833Z,5.60
2019-01-12T05:05:40.061Z,5.70
2019-01-12T05:08:22.132Z,5.70
2019-01-12T05:11:04.221Z,5.70
2019-01-12T05:13:46.118Z,5.70
2019-01-12T05:19:13.446Z,5.60
2019-01-12T05:22:01.452Z,5.60
2019-01-12T05:24:49.462Z,5.60
2019-01-12T05:27:56.897Z,5.60
2019-01-12T05:30:44.815Z,5.60
2019-01-12T05:33:52.219Z,5.60
2019-01-12T05:36:40.211Z,5.50
2019-01-12T05:39:28.155Z,5.50
2019-01-12T05:42:16.123Z,5.50
2019-01-12T05:45:04.064Z,5.50
2019-01-12T05:47:52.133Z,5.50
2019-01-12T05:50:59.572Z,5.50
2019-01-12T05:53:47.587Z,5.40
2019-01-12T05:56:35.616Z,5.30
2019-01-12T05:59:23.582Z,5.30
2019-01-12T06:02:11.619Z,5.30
2019-01-12T06:04:59.568Z,5.30
2019-01-12T06:07:40.631Z,5.20
2019-01-12T06:10:22.531Z,5.30
2019-01-12T06:13:03.919Z,5.20
2019-01-12T06:15:45.682Z,5.20
2019-01-12T06:18:26.836Z,5.20
2019-01-12T06:21:08.155Z,5.30
2019-01-12T06:23:50.072Z,5.30
2019-01-12T06:32:26.267Z,5.20
2019-01-12T06:35:07.408Z,5.20
2019-01-12T06:37:49.326Z,5.20
2019-01-12T06:40:18.097Z,5.20
2019-01-12T06:43:25.508Z,5.20
2019-01-12T06:46:13.444Z,5.20
2019-01-12T06:49:01.453Z,5.20
2019-01-12T06:51:49.511Z,5.20
2019-01-12T06:54:56.990Z,5.20
2019-01-12T06:57:57.481Z,5.20
2019-01-12T07:00:54.171Z,5.10
2019-01-12T07:03:42.098Z,5.20
2019-01-12T07:06:30.123Z,5.20
2019-01-12T07:09:18.209Z,5.20
2019-01-12T07:12:25.436Z,5.20
2019-01-12T07:15:13.400Z,5.20
2019-01-12T07:18:01.487Z,5.20
2019-01-12T07:20:49.479Z,5.20
2019-01-12T07:23:37.422Z,5.20
2019-01-12T07:26:44.820Z,5.10
2019-01-12T07:29:52.322Z,5.10
2019-01-12T07:32:40.399Z,5.10
2019-01-12T07:35:28.459Z,5.10
2019-01-12T07:38:10.200Z,5.10
2019-01-12T07:40:52.244Z,5.10
2019-01-12T07:43:33.522Z,5.10
2019-01-12T07:46:15.155Z,5.20
2019-01-12T07:48:56.941Z,5.20
2019-01-12T07:51:38.855Z,5.20
2019-01-12T07:54:20.913Z,5.20
2019-01-12T07:57:02.471Z,5.20
2019-01-12T07:59:44.267Z,5.20
2019-01-12T08:02:26.043Z,5.20
2019-01-12T08:05:07.295Z,5.20
2019-01-12T08:07:49.336Z,5.20
2019-01-12T08:10:32.779Z,5.20
2019-01-12T08:13:14.691Z,5.20
2019-01-12T08:15:56.270Z,5.20
2019-01-12T08:18:37.396Z,5.20
2019-01-12T08:21:18.635Z,5.20
2019-01-12T08:24:00.458Z,5.20
2019-01-12T08:26:43.279Z,5.10
2019-01-12T08:29:11.998Z,5.10
2019-01-12T08:31:59.931Z,5.10
2019-01-12T08:34:47.905Z,5.20
2019-01-12T08:37:29.100Z,5.20
2019-01-12T08:40:10.947Z,5.20
2019-01-12T08:42:52.579Z,5.20
2019-01-12T08:45:34.421Z,5.20
2019-01-12T08:48:16.523Z,5.20
2019-01-12T08:50:58.355Z,5.20
2019-01-12T08:53:40.179Z,5.30
2019-01-12T08:56:21.236Z,5.20
2019-01-12T08:59:02.466Z,5.20
2019-01-12T09:01:43.719Z,5.20
2019-01-12T09:04:23.355Z,5.20
2019-01-12T09:07:11.376Z,5.30
2019-01-12T09:10:19.759Z,5.30
2019-01-12T09:13:27.967Z,5.30
2019-01-12T09:16:16.120Z,5.30
2019-01-12T09:19:04.044Z,5.40
2019-01-12T09:22:11.447Z,5.40
2019-01-12T09:24:59.482Z,5.40
2019-01-12T09:27:47.520Z,5.40
2019-01-12T09:30:54.972Z,5.40
2019-01-12T09:33:42.992Z,5.30
2019-01-12T09:36:30.959Z,5.30
2019-01-12T09:39:31.981Z,5.40
2019-01-12T09:42:13.898Z,5.40
2019-01-12T09:44:55.683Z,5.40
2019-01-12T09:47:36.811Z,5.40
2019-01-12T09:50:18.059Z,5.50
2019-01-12T09:52:59.968Z,5.50
2019-01-12T09:55:41.664Z,5.50
2019-01-12T09:58:21.500Z,5.50
2019-01-12T10:01:09.500Z,5.60
2019-01-12T10:03:57.510Z,5.70
2019-01-12T10:06:45.445Z,5.70
2019-01-12T10:09:33.478Z,5.70
2019-01-12T10:12:21.414Z,5.70
2019-01-12T10:15:28.836Z,5.70
2019-01-12T10:18:16.776Z,5.70
2019-01-12T10:21:04.835Z,5.70
2019-01-12T10:24:12.326Z,5.70
2019-01-12T10:27:00.263Z,5.70
2019-01-12T10:29:48.231Z,5.70
2019-01-12T10:32:36.295Z,5.70
2019-01-12T10:35:24.433Z,5.70
2019-01-12T10:38:12.419Z,5.70
2019-01-12T10:40:54.588Z,5.70
2019-01-12T10:43:34.270Z,5.60
2019-01-12T10:46:22.250Z,5.70
2019-01-12T10:49:10.254Z,5.60
2019-01-12T10:51:58.384Z,5.60
2019-01-12T10:55:05.831Z,5.60
2019-01-12T10:57:53.931Z,5.60
2019-01-12T11:00:41.973Z,5.60
2019-01-12T11:03:29.908Z,5.60
2019-01-12T11:06:18.048Z,5.60
2019-01-12T11:09:05.987Z,5.50
2019-01-12T11:11:54.196Z,5.50
2019-01-12T11:14:42.206Z,5.50
2019-01-12T11:17:30.438Z,5.50
2019-01-12T11:20:18.388Z,5.50
2019-01-12T11:23:06.700Z,5.60
2019-01-12T11:25:54.774Z,5.50
2019-01-12T11:28:43.542Z,5.50
2019-01-12T11:31:31.616Z,5.50
2019-01-12T11:34:19.622Z,5.50
2019-01-12T11:37:27.163Z,5.50
2019-01-12T11:40:27.947Z,5.50
2019-01-12T11:43:09.852Z,5.40
2019-01-12T11:45:51.509Z,5.40
2019-01-12T11:48:32.979Z,5.40
2019-01-12T11:51:15.035Z,5.50
2019-01-12T11:53:56.129Z,5.10
2019-01-12T11:56:38.199Z,5.50
2019-01-12T11:59:19.331Z,5.50
2019-01-12T12:02:00.424Z,5.50
2019-01-12T12:04:42.334Z,5.40
2019-01-12T12:07:23.844Z,5.40
2019-01-12T12:10:05.967Z,5.40
2019-01-12T12:12:45.699Z,5.40
2019-01-12T12:15:33.662Z,5.40
2019-01-12T12:18:21.639Z,5.40
2019-01-12T12:21:29.036Z,5.40
2019-01-12T12:24:36.470Z,5.40
2019-01-12T12:27:26.136Z,5.40
2019-01-12T12:30:33.547Z,5.30
2019-01-12T12:33:21.688Z,5.30
2019-01-12T12:36:10.203Z,5.30
2019-01-12T12:39:17.756Z,5.30
2019-01-12T12:42:05.848Z,5.30
2019-01-12T12:45:13.324Z,5.30
2019-01-12T12:48:01.265Z,5.30
2019-01-12T12:51:08.674Z,5.30
2019-01-12T12:53:48.294Z,5.40
2019-01-12T12:56:36.276Z,5.30
2019-01-12T12:59:24.376Z,5.30
2019-01-12T13:02:12.583Z,5.40
2019-01-12T13:05:00.546Z,5.30
2019-01-12T13:07:48.517Z,5.40
2019-01-12T13:10:55.963Z,5.40
2019-01-12T13:13:44.073Z,5.40
2019-01-12T13:16:32.281Z,5.40
2019-01-12T13:19:20.228Z,5.50
2019-01-12T13:22:08.284Z,5.50
2019-01-12T13:25:16.584Z,5.50
2019-01-12T13:28:17.511Z,5.50
2019-01-12T13:34:06.328Z,5.50
2019-01-12T13:36:48.178Z,5.50
2019-01-12T13:39:32.103Z,5.50
2019-01-12T13:42:13.566Z,5.60
2019-01-12T13:44:55.167Z,5.60
2019-01-12T13:47:36.469Z,5.60
2019-01-12T13:50:18.583Z,5.60
2019-01-12T13:53:00.060Z,5.60
2019-01-12T13:58:27.538Z,5.60
2019-01-12T14:01:15.552Z,5.70
2019-01-12T14:03:44.379Z,5.70
2019-01-12T14:06:51.764Z,5.70
2019-01-12T14:09:39.852Z,5.70
2019-01-12T14:12:28.006Z,5.80
2019-01-12T14:15:16.173Z,5.70
2019-01-12T14:18:04.142Z,5.80
2019-01-12T14:21:07.575Z,5.80
2019-01-12T14:24:01.540Z,5.80
2019-01-12T14:26:49.636Z,5.80
2019-01-12T14:29:37.768Z,5.80
2019-01-12T14:32:25.812Z,5.90
2019-01-12T14:35:13.863Z,5.90
2019-01-12T14:38:01.862Z,5.90
2019-01-12T14:40:49.861Z,5.90
2019-01-12T14:43:37.892Z,6.00
2019-01-12T14:46:25.846Z,6.00
2019-01-12T14:49:14.274Z,6.00
2019-01-12T14:52:02.259Z,6.00
2019-01-12T14:54:44.230Z,6.10
2019-01-12T14:57:25.886Z,6.10
2019-01-12T15:00:07.810Z,6.10
2019-01-12T15:02:49.232Z,6.20
2019-01-12T15:05:30.872Z,6.20
2019-01-12T15:08:12.007Z,6.20
2019-01-12T15:10:53.456Z,6.30
2019-01-12T15:13:35.409Z,6.30
2019-01-12T15:16:04.254Z,6.30
2019-01-12T15:18:33.137Z,6.30
2019-01-12T15:21:35.637Z,6.30
2019-01-12T15:24:30.572Z,6.40
2019-01-12T15:27:18.713Z,6.40
2019-01-12T15:30:26.096Z,6.40
2019-01-12T15:33:14.154Z,6.40
2019-01-12T15:36:02.237Z,6.40
2019-01-12T15:38:43.878Z,6.40
2019-01-12T15:41:26.684Z,6.50
2019-01-12T15:44:07.814Z,6.50
2019-01-12T15:46:49.351Z,6.40
2019-01-12T15:49:31.672Z,6.50
2019-01-12T15:52:13.968Z,6.40
2019-01-12T15:54:55.759Z,6.40
2019-01-12T15:57:37.126Z,6.40
2019-01-12T16:00:26.693Z,6.50
2019-01-12T16:03:14.660Z,6.50
2019-01-12T16:06:22.258Z,6.50
2019-01-12T16:09:10.278Z,6.50
2019-01-12T16:12:17.732Z,6.50
2019-01-12T16:15:05.742Z,6.50
2019-01-12T16:18:13.600Z,6.50
2019-01-12T16:21:01.609Z,6.50
2019-01-12T16:23:49.682Z,6.50
2019-01-12T16:26:37.699Z,6.50
2019-01-12T16:29:45.216Z,6.50
2019-01-12T16:32:33.259Z,6.50
2019-01-12T16:35:22.870Z,6.50
2019-01-12T16:38:24.503Z,6.60
2019-01-12T16:41:07.267Z,6.60
2019-01-12T16:43:56.307Z,6.60
2019-01-12T16:47:04.751Z,6.60
2019-01-12T16:50:13.341Z,6.60
2019-01-12T16:53:02.263Z,6.70
2019-01-12T16:56:10.578Z,6.70
2019-01-12T16:58:59.463Z,6.60
2019-01-12T17:01:48.327Z,6.60
2019-01-12T17:04:37.230Z,6.70
2019-01-12T17:07:45.613Z,6.60
2019-01-12T17:10:34.812Z,6.60
2019-01-12T17:13:23.757Z,6.60
2019-01-12T17:16:12.641Z,6.60
2019-01-12T17:19:00.764Z,6.60
2019-01-12T17:21:48.775Z,6.60
2019-01-12T17:24:56.190Z,6.60
2019-01-12T17:27:44.366Z,6.70
2019-01-12T17:30:32.393Z,6.60
2019-01-12T17:33:20.385Z,6.60
2019-01-12T17:36:08.450Z,6.60
2019-01-12T17:38:56.476Z,6.60
2019-01-12T17:41:38.254Z,6.60
2019-01-12T17:44:19.476Z,6.60
2019-01-12T17:47:01.346Z,6.60
2019-01-12T17:49:42.416Z,6.60
2019-01-12T17:52:24.341Z,6.60
2019-01-12T17:55:05.843Z,6.60
2019-01-12T17:57:45.471Z,6.60
2019-01-12T18:00:52.695Z,6.60
2019-01-12T18:03:40.691Z,6.60
2019-01-12T18:06:28.883Z,6.60
2019-01-12T18:09:16.904Z,6.60
2019-01-12T18:12:24.304Z,6.60
2019-01-12T18:15:12.323Z,6.60
2019-01-12T18:18:19.736Z,6.60
2019-01-12T18:21:07.706Z,6.60
2019-01-12T18:23:55.814Z,6.60
2019-01-12T18:26:43.843Z,6.60
2019-01-12T18:29:31.879Z,6.60
2019-01-12T18:32:19.918Z,6.60
2019-01-12T18:35:07.968Z,6.60
2019-01-12T18:37:56.004Z,6.50
2019-01-12T18:40:37.725Z,6.50
2019-01-12T18:43:19.340Z,6.50
2019-01-12T18:46:00.866Z,6.50
2019-01-12T18:48:42.655Z,6.50
2019-01-12T18:51:24.505Z,6.40
2019-01-12T18:54:06.091Z,6.50
2019-01-12T18:56:47.763Z,6.40
2019-01-12T18:59:29.052Z,6.20
2019-01-12T19:02:10.847Z,6.50
2019-01-12T19:04:52.435Z,6.50
2019-01-12T19:07:33.946Z,6.40
2019-01-12T19:10:15.674Z,6.30
2019-01-12T19:12:57.479Z,6.30
2019-01-12T19:15:39.733Z,6.30
2019-01-12T19:18:21.510Z,6.30
2019-01-12T19:21:02.657Z,6.40
2019-01-12T19:23:43.879Z,6.40
2019-01-12T19:26:25.059Z,6.40
2019-01-12T19:29:06.898Z,6.50
2019-01-12T19:31:48.618Z,6.50
2019-01-12T19:34:30.539Z,6.40
2019-01-12T19:37:12.545Z,6.40
2019-01-12T19:39:54.291Z,6.40
2019-01-12T19:42:36.332Z,6.40
2019-01-12T19:45:18.368Z,6.40
2019-01-12T19:47:59.713Z,6.40
2019-01-12T19:50:41.267Z,6.40
2019-01-12T19:53:23.036Z,6.40
2019-01-12T19:56:04.200Z,6.40
2019-01-12T19:58:45.847Z,6.40
2019-01-12T20:01:27.192Z,6.40
2019-01-12T20:04:08.988Z,6.40
2019-01-12T20:06:50.655Z,6.40
2019-01-12T20:09:32.799Z,6.40
2019-01-12T20:12:14.279Z,6.40
2019-01-12T20:14:55.752Z,6.40
2019-01-12T20:17:37.630Z,6.40
2019-01-12T20:20:19.465Z,6.40
2019-01-12T20:23:01.111Z,6.50
2019-01-12T20:25:42.887Z,6.50
2019-01-12T20:28:24.397Z,6.50
2019-01-12T20:31:06.487Z,6.50
2019-01-12T20:33:47.887Z,6.50
2019-01-12T20:36:29.304Z,6.50
2019-01-12T20:39:11.271Z,6.50
2019-01-12T20:41:53.339Z,6.50
2019-01-12T20:44:35.875Z,6.50
2019-01-12T20:47:17.854Z,6.40
2019-01-12T20:49:59.552Z,6.50
2019-01-12T20:52:41.572Z,6.40
2019-01-12T20:55:23.503Z,6.40
2019-01-12T20:58:05.332Z,6.50
2019-01-12T21:00:46.514Z,6.40
2019-01-12T21:03:28.571Z,6.40
2019-01-12T21:06:10.627Z,6.40
2019-01-12T21:08:51.887Z,6.40
2019-01-12T21:11:39.911Z,6.40
2019-01-12T21:14:27.871Z,6.30
2019-01-12T21:17:15.922Z,6.30
2019-01-12T21:20:03.869Z,6.30
2019-01-12T21:22:51.897Z,6.00
2019-01-12T21:25:59.299Z,6.30
2019-01-12T21:29:06.856Z,6.30
2019-01-12T21:31:54.915Z,6.20
2019-01-12T21:34:42.920Z,6.30
2019-01-12T21:37:32.506Z,6.30
2019-01-12T21:40:33.287Z,6.30
2019-01-12T21:43:15.363Z,6.30
2019-01-12T21:45:57.055Z,6.30
2019-01-12T21:48:36.737Z,6.30
2019-01-12T21:51:24.754Z,6.30
2019-01-12T21:54:12.808Z,6.40
2019-01-12T21:57:01.012Z,6.30
2019-01-12T21:59:48.979Z,6.40
2019-01-12T22:02:36.981Z,6.30
2019-01-12T22:05:25.058Z,6.30
2019-01-12T22:08:13.166Z,6.30
2019-01-12T22:11:20.572Z,6.30
2019-01-12T22:14:28.063Z,6.30
2019-01-12T22:17:16.221Z,6.40
2019-01-12T22:20:23.743Z,6.40
2019-01-12T22:23:31.286Z,6.40
2019-01-12T22:26:19.597Z,6.40
2019-01-12T22:29:27.111Z,6.40
2019-01-12T22:32:15.112Z,6.40
2019-01-12T22:35:03.271Z,6.40
2019-01-12T22:37:51.396Z,6.40
2019-01-12T22:40:52.790Z,6.40
2019-01-12T22:43:34.882Z,6.40
2019-01-12T22:46:16.871Z,6.30
2019-01-12T22:48:58.243Z,6.30
2019-01-12T22:51:38.114Z,6.30
2019-01-12T22:54:26.233Z,6.30
2019-01-12T22:57:14.187Z,6.40
2019-01-12T23:00:02.287Z,6.40
2019-01-12T23:02:50.638Z,6.30
2019-01-12T23:05:58.157Z,6.30
2019-01-12T23:08:46.648Z,6.30
2019-01-12T23:11:34.793Z,6.40
2019-01-12T23:14:24.513Z,6.40
2019-01-12T23:17:12.462Z,6.40
2019-01-12T23:20:20.020Z,6.30
2019-01-12T23:23:08.087Z,6.30
2019-01-12T23:26:15.588Z,6.30
2019-01-12T23:29:03.717Z,6.30
2019-01-12T23:31:51.862Z,6.30
2019-01-12T23:34:40.018Z,6.30
2019-01-12T23:37:47.490Z,6.30
2019-01-12T23:40:28.895Z,6.30
2019-01-12T23:43:10.593Z,6.30
2019-01-12T23:45:52.258Z,6.30
2019-01-12T23:48:34.076Z,6.30
2019-01-12T23:51:15.412Z,6.30
2019-01-12T23:53:57.350Z,6.40
2019-01-12T23:56:39.175Z,6.40
2019-01-12T23:59:21.275Z,6.40
